Observation data for Plains on 11/19/2019      Previous  Date       Current Mesonet Observations  Soil Data  Daily Summary Page  Observations in Plain Language
KPPS 190600Z 00000KT 07/M00 A2999 RMK A01 T00741004  RH  058%=      5-min Rain = 0
KPPS 190605Z 19000KT 08/M01 A2999 RMK A01 T00761005  RH  057%=      5-min Rain = 0
KPPS 190610Z 19000KT 08/M00 A2999 RMK A01 T00771004  RH  057%=      5-min Rain = 0
KPPS 190615Z 13002KT 08/M00 A2999 RMK A01 T00781004  RH  056%=      5-min Rain = 0
KPPS 190620Z 12003KT 09/M00 A2999 RMK A01 T00881004  RH  053%=      5-min Rain = 0
KPPS 190625Z 12002KT 10/M01 A30 RMK A01 T00971005  RH  049%=      5-min Rain = 0
KPPS 190630Z 24002KT 07/M01 A30 RMK A01 T00731007  RH  058%=      5-min Rain = 0
KPPS 190635Z 25005KT 05/M01 A30 RMK A01 T00541006  RH  066%=      5-min Rain = 0
KPPS 190640Z 25005KT 05/M01 A30 RMK A01 T00521005  RH  067%=      5-min Rain = 0
KPPS 190645Z 24003KT 06/M00 A30 RMK A01 T00571004  RH  065%=      5-min Rain = 0
KPPS 190650Z 23002KT 06/M00 A30 RMK A01 T00631004  RH  063%=      5-min Rain = 0
KPPS 190655Z 27003KT 06/M00 A30 RMK A01 T00621003  RH  064%=      5-min Rain = 0
KPPS 190700Z 29002KT 06/M00 A30 RMK A01 T00641004  RH  062%=      5-min Rain = 0
KPPS 190705Z 28001KT 07/M00 A3001 RMK A01 T00661004  RH  062%=      5-min Rain = 0
KPPS 190710Z 25002KT 07/M00 A3001 RMK A01 T00661004  RH  062%=      5-min Rain = 0
KPPS 190715Z 25001KT 07/M01 A30 RMK A01 T00661005  RH  061%=      5-min Rain = 0
KPPS 190720Z 25001KT 07/M01 A3001 RMK A01 T00661005  RH  061%=      5-min Rain = 0
KPPS 190725Z 24002KT 07/M01 A3001 RMK A01 T00671005  RH  061%=      5-min Rain = 0
KPPS 190730Z 25005KT 06/M01 A3001 RMK A01 T00621006  RH  063%=      5-min Rain = 0
KPPS 190735Z 26006KT 04/M01 A3001 RMK A01 T00431009  RH  070%=      5-min Rain = 0
KPPS 190740Z 26007KT 03/M01 A3001 RMK A01 T00331009  RH  075%=      5-min Rain = 0
KPPS 190745Z 27007KT 03/M01 A3001 RMK A01 T00281009  RH  077%=      5-min Rain = 0
KPPS 190750Z 26007KT 03/M01 A3001 RMK A01 T00281008  RH  078%=      5-min Rain = 0
KPPS 190755Z 26006KT 03/M01 A3001 RMK A01 T00301008  RH  077%=      5-min Rain = 0
KPPS 190800Z 26005KT 03/M01 A3001 RMK A01 T00341008  RH  075%=      5-min Rain = 0
KPPS 190805Z 26005KT 04/M01 A30 RMK A01 T00421007  RH  071%=      5-min Rain = 0
KPPS 190810Z 26004KT 05/M01 A3001 RMK A01 T00471008  RH  068%=      5-min Rain = 0
KPPS 190815Z 27005KT 05/M01 A3001 RMK A01 T00511008  RH  067%=      5-min Rain = 0
KPPS 190820Z 27003KT 05/M01 A3001 RMK A01 T00491008  RH  067%=      5-min Rain = 0
KPPS 190825Z 27004KT 05/M01 A30 RMK A01 T00521007  RH  066%=      5-min Rain = 0
KPPS 190830Z 28004KT 05/M01 A30 RMK A01 T00541007  RH  065%=      5-min Rain = 0
KPPS 190835Z 28003KT 05/M01 A30 RMK A01 T00541008  RH  065%=      5-min Rain = 0
KPPS 190840Z 28002KT 05/M01 A30 RMK A01 T00511009  RH  066%=      5-min Rain = 0
KPPS 190845Z 28001KT 05/M01 A30 RMK A01 T00521008  RH  066%=      5-min Rain = 0
KPPS 190850Z 28002KT 06/M01 A30 RMK A01 T00581006  RH  064%=      5-min Rain = 0
KPPS 190855Z 30003KT 06/M01 A30 RMK A01 T00561008  RH  064%=      5-min Rain = 0
KPPS 190900Z 32004KT 05/M01 A2999 RMK A01 T00451006  RH  070%=      5-min Rain = 0
KPPS 190905Z 33004KT 04/M01 A2999 RMK A01 T00401005  RH  074%=      5-min Rain = 0
KPPS 190910Z 34004KT 04/M00 A2999 RMK A01 T00391004  RH  075%=      5-min Rain = 0
KPPS 190915Z 34004KT 04/M01 A2999 RMK A01 T00381005  RH  074%=      5-min Rain = 0
KPPS 190920Z 34005KT 04/M01 A2999 RMK A01 T00351006  RH  075%=      5-min Rain = 0
KPPS 190925Z 32004KT 04/M01 A2999 RMK A01 T00351005  RH  076%=      5-min Rain = 0
KPPS 190930Z 31005KT 03/M01 A2999 RMK A01 T00341006  RH  076%=      5-min Rain = 0
KPPS 190935Z 31005KT 03/M01 A2999 RMK A01 T00321006  RH  077%=      5-min Rain = 0
KPPS 190940Z 31005KT 04/M01 A2999 RMK A01 T00351007  RH  074%=      5-min Rain = 0
KPPS 190945Z 31003KT 04/M01 A2999 RMK A01 T00351008  RH  075%=      5-min Rain = 0
KPPS 190950Z 31003KT 04/M01 A2998 RMK A01 T00351008  RH  075%=      5-min Rain = 0
KPPS 190955Z 32003KT 03/M01 A2998 RMK A01 T00331008  RH  075%=      5-min Rain = 0
KPPS 191000Z 31003KT 04/M01 A2999 RMK A01 T00351007  RH  075%=      5-min Rain = 0
KPPS 191005Z 30003KT 04/M01 A2998 RMK A01 T00371007  RH  074%=      5-min Rain = 0
KPPS 191010Z 30003KT 04/M01 A2998 RMK A01 T00391007  RH  073%=      5-min Rain = 0
KPPS 191015Z 30002KT 04/M01 A2998 RMK A01 T00421007  RH  071%=      5-min Rain = 0
KPPS 191020Z 30002KT 05/M01 A2998 RMK A01 T00461008  RH  069%=      5-min Rain = 0
KPPS 191025Z 30002KT 04/M01 A2999 RMK A01 T00441008  RH  070%=      5-min Rain = 0
KPPS 191030Z 30002KT 04/M01 A2999 RMK A01 T00411008  RH  071%=      5-min Rain = 0
KPPS 191035Z 31003KT 04/M01 A2998 RMK A01 T00371009  RH  073%=      5-min Rain = 0
KPPS 191040Z 31002KT 03/M01 A2999 RMK A01 T00341009  RH  074%=      5-min Rain = 0
KPPS 191045Z 31001KT 03/M01 A2999 RMK A01 T00321009  RH  075%=      5-min Rain = 0
KPPS 191050Z 31001KT 03/M01 A2999 RMK A01 T00311009  RH  076%=      5-min Rain = 0
KPPS 191055Z 31002KT 03/M01 A2998 RMK A01 T00291012  RH  075%=      5-min Rain = 0
KPPS 191100Z 28002KT 03/M01 A2998 RMK A01 T00251012  RH  077%=      5-min Rain = 0
KPPS 191105Z 27003KT 02/M01 A2998 RMK A01 T00211014  RH  079%=      5-min Rain = 0
KPPS 191110Z 28002KT 02/M01 A2998 RMK A01 T00191012  RH  080%=      5-min Rain = 0
KPPS 191115Z 29002KT 02/M01 A2998 RMK A01 T00211011  RH  080%=      5-min Rain = 0
KPPS 191120Z 29002KT 02/M01 A2998 RMK A01 T00231011  RH  079%=      5-min Rain = 0
KPPS 191125Z 29002KT 02/M01 A2998 RMK A01 T00231011  RH  079%=      5-min Rain = 0
KPPS 191130Z 29002KT 02/M01 A2997 RMK A01 T00231011  RH  079%=      5-min Rain = 0
KPPS 191135Z 29003KT 02/M01 A2997 RMK A01 T00201012  RH  080%=      5-min Rain = 0
KPPS 191140Z 29002KT 02/M01 A2997 RMK A01 T00201011  RH  081%=      5-min Rain = 0
KPPS 191145Z 29002KT 02/M01 A2997 RMK A01 T00231010  RH  080%=      5-min Rain = 0
KPPS 191150Z 29002KT 02/M01 A2997 RMK A01 T00231010  RH  079%=      5-min Rain = 0
KPPS 191155Z 29002KT 02/M01 A2997 RMK A01 T00231011  RH  079%=      5-min Rain = 0
KPPS 191200Z 29001KT 02/M01 A2997 RMK A01 T00231012  RH  078%=      5-min Rain = 0
KPPS 191205Z 29001KT 02/M01 A2997 RMK A01 T00231012  RH  078%=      5-min Rain = 0
KPPS 191210Z 29001KT 03/M01 A2997 RMK A01 T00271010  RH  077%=      5-min Rain = 0
KPPS 191215Z 29001KT 04/M01 A2996 RMK A01 T00361007  RH  074%=      5-min Rain = 0
KPPS 191220Z 29000KT 04/M01 A2996 RMK A01 T00431007  RH  071%=      5-min Rain = 0
KPPS 191225Z 29001KT 04/M01 A2996 RMK A01 T00441008  RH  070%=      5-min Rain = 0
KPPS 191230Z 29001KT 04/M01 A2997 RMK A01 T00441009  RH  069%=      5-min Rain = 0
KPPS 191235Z 29000KT 04/M01 A2997 RMK A01 T00421010  RH  070%=      5-min Rain = 0
KPPS 191240Z 29001KT 04/M01 A2997 RMK A01 T00411009  RH  070%=      5-min Rain = 0
KPPS 191245Z 29001KT 04/M01 A2997 RMK A01 T00371010  RH  072%=      5-min Rain = 0
KPPS 191250Z 32001KT 03/M01 A2997 RMK A01 T00341010  RH  074%=      5-min Rain = 0
KPPS 191255Z 32001KT 03/M01 A2997 RMK A01 T00331010  RH  074%=      5-min Rain = 0
KPPS 191300Z 32001KT 03/M01 A2997 RMK A01 T00341010  RH  074%=      5-min Rain = 0
KPPS 191305Z 32000KT 04/M01 A2996 RMK A01 T00351009  RH  073%=      5-min Rain = 0
KPPS 191310Z 00000KT 04/M01 A2996 RMK A01 T00381009  RH  072%=      5-min Rain = 0
KPPS 191315Z 00000KT 04/M01 A2996 RMK A01 T00421009  RH  070%=      5-min Rain = 0
KPPS 191320Z 00000KT 04/M01 A2997 RMK A01 T00411009  RH  071%=      5-min Rain = 0
KPPS 191325Z 30002G9KT 04/M01 A2997 RMK A01 T00381009  RH  072%=      5-min Rain = 0
KPPS 191330Z 28006G11KT 03/M01 A2997 RMK A01 T00251013  RH  077%=      5-min Rain = 0
KPPS 191335Z 30002KT 02/M01 A2997 RMK A01 T00191011  RH  081%=      5-min Rain = 0
KPPS 191340Z 29001KT 02/M01 A2997 RMK A01 T00211011  RH  081%=      5-min Rain = 0
KPPS 191345Z 25000KT 03/M01 A2997 RMK A01 T00261009  RH  078%=      5-min Rain = 0
KPPS 191350Z 25000KT 04/M01 A2997 RMK A01 T00351008  RH  074%=      5-min Rain = 0
KPPS 191355Z 25000KT 04/M01 A2997 RMK A01 T00391006  RH  073%=      5-min Rain = 0
KPPS 191400Z 25001KT 04/M01 A2997 RMK A01 T00391006  RH  073%=      5-min Rain = 0
KPPS 191405Z 26003KT 04/M00 A2997 RMK A01 T00381004  RH  075%=      5-min Rain = 0
KPPS 191410Z 27003KT 04/00 A2997 RMK A01 T00410000  RH  076%=      5-min Rain = 0
KPPS 191415Z 26004KT 05/01 A2998 RMK A01 T00450005  RH  076%=      5-min Rain = 0
KPPS 191420Z 26004KT 05/01 A2998 RMK A01 T00450007  RH  078%=      5-min Rain = 0
KPPS 191425Z 26004KT 05/01 A2998 RMK A01 T00460006  RH  076%=      5-min Rain = 0
KPPS 191430Z 25003KT 05/01 A2998 RMK A01 T00510007  RH  074%=      5-min Rain = 0
KPPS 191435Z 25004KT 06/01 A2998 RMK A01 T00600011  RH  072%=      5-min Rain = 0
KPPS 191440Z 24004KT 07/01 A2998 RMK A01 T00690014  RH  069%=      5-min Rain = 0
KPPS 191445Z 24003KT 08/01 A2998 RMK A01 T00770013  RH  065%=      5-min Rain = 0
KPPS 191450Z 24003KT 08/02 A2998 RMK A01 T00830015  RH  063%=      5-min Rain = 0
KPPS 191455Z 24003KT 09/02 A2998 RMK A01 T00870015  RH  061%=      5-min Rain = 0
KPPS 191500Z 23003KT 09/02 A2998 RMK A01 T00940016  RH  059%=      5-min Rain = 0
KPPS 191505Z 20002KT 10/02 A2998 RMK A01 T01030015  RH  055%=      5-min Rain = 0
KPPS 191510Z 18003KT 12/01 A2998 RMK A01 T01150013  RH  050%=      5-min Rain = 0
KPPS 191515Z 18003KT 12/01 A2998 RMK A01 T01230013  RH  048%=      5-min Rain = 0
KPPS 191520Z 18004KT 13/01 A2998 RMK A01 T01300012  RH  045%=      5-min Rain = 0
KPPS 191525Z 18004KT 14/01 A2998 RMK A01 T01380013  RH  043%=      5-min Rain = 0
KPPS 191530Z 18005KT 15/01 A2998 RMK A01 T01450013  RH  041%=      5-min Rain = 0
KPPS 191535Z 19004KT 15/02 A2998 RMK A01 T01480015  RH  041%=      5-min Rain = 0
KPPS 191540Z 18009KT 16/01 A2998 RMK A01 T01560010  RH  038%=      5-min Rain = 0
KPPS 191545Z 17009KT 17/00 A2998 RMK A01 T01650003  RH  034%=      5-min Rain = 0
KPPS 191550Z 17010KT 17/00 A2998 RMK A01 T01650000  RH  033%=      5-min Rain = 0
KPPS 191555Z 17012KT 17/M00 A2998 RMK A01 T01651001  RH  033%=      5-min Rain = 0
KPPS 191600Z 17011KT 17/00 A2998 RMK A01 T016500-0  RH  033%=      5-min Rain = 0
KPPS 191605Z 17010KT 17/00 A2998 RMK A01 T01680002  RH  033%=      5-min Rain = 0
KPPS 191610Z 17009KT 17/00 A2998 RMK A01 T01720004  RH  033%=      5-min Rain = 0
KPPS 191615Z 18010KT 18/00 A2998 RMK A01 T01760002  RH  031%=      5-min Rain = 0
KPPS 191620Z 17010KT 18/00 A2998 RMK A01 T017500-0  RH  031%=      5-min Rain = 0
KPPS 191625Z 17011KT 18/M00 A2998 RMK A01 T01751001  RH  031%=      5-min Rain = 0
KPPS 191630Z 18011KT 18/M00 A2998 RMK A01 T01791002  RH  030%=      5-min Rain = 0
KPPS 191635Z 18010KT 18/00 A2998 RMK A01 T01830000  RH  029%=      5-min Rain = 0
KPPS 191640Z 18011KT 19/00 A2998 RMK A01 T01850000  RH  029%=      5-min Rain = 0
KPPS 191645Z 18009KT 19/00 A2998 RMK A01 T01910002  RH  028%=      5-min Rain = 0
KPPS 191650Z 18012KT 19/M01 A2998 RMK A01 T01921005  RH  027%=      5-min Rain = 0
KPPS 191655Z 18011KT 19/M01 A2998 RMK A01 T01931005  RH  027%=      5-min Rain = 0
KPPS 191700Z 19011G17KT 20/00 A2998 RMK A01 T019600-0  RH  027%=      5-min Rain = 0
KPPS 191705Z 19012G17KT 20/M00 A2998 RMK A01 T01961001  RH  027%=      5-min Rain = 0
KPPS 191710Z 19011KT 20/00 A2998 RMK A01 T01970002  RH  027%=      5-min Rain = 0
KPPS 191715Z 20011KT 20/00 A2997 RMK A01 T01990002  RH  027%=      5-min Rain = 0
KPPS 191720Z 19012KT 20/00 A2997 RMK A01 T02030003  RH  027%=      5-min Rain = 0
KPPS 191725Z 20012KT 21/M00 A2997 RMK A01 T02051001  RH  026%=      5-min Rain = 0
KPPS 191730Z 20012KT 21/M00 A2996 RMK A01 T02081002  RH  025%=      5-min Rain = 0
KPPS 191735Z 20012KT 21/M01 A2996 RMK A01 T02091005  RH  024%=      5-min Rain = 0
KPPS 191740Z 19013KT 21/M01 A2996 RMK A01 T02111005  RH  024%=      5-min Rain = 0
KPPS 191745Z 20012KT 21/M01 A2996 RMK A01 T02121007  RH  023%=      5-min Rain = 0
KPPS 191750Z 20013KT 22/M01 A2995 RMK A01 T02151008  RH  023%=      5-min Rain = 0
KPPS 191755Z 20012KT 22/M01 A2995 RMK A01 T02171007  RH  023%=      5-min Rain = 0
KPPS 191800Z 20012KT 22/M01 A2995 RMK A01 T02221006  RH  022%=      5-min Rain = 0
KPPS 191805Z 20013KT 22/M01 A2995 RMK A01 T02231008  RH  022%=      5-min Rain = 0
KPPS 191810Z 19011G17KT 22/M01 A2994 RMK A01 T02211006  RH  022%=      5-min Rain = 0
KPPS 191815Z 20013G19KT 22/M01 A2994 RMK A01 T02201008  RH  022%=      5-min Rain = 0
KPPS 191820Z 20013G18KT 22/M01 A2994 RMK A01 T02221009  RH  022%=      5-min Rain = 0
KPPS 191825Z 19014KT 23/M01 A2993 RMK A01 T02251006  RH  022%=      5-min Rain = 0
KPPS 191830Z 19014G19KT 23/M01 A2993 RMK A01 T02281006  RH  021%=      5-min Rain = 0
KPPS 191835Z 19013KT 23/M00 A2993 RMK A01 T02291004  RH  022%=      5-min Rain = 0
KPPS 191840Z 19015G20KT 23/M01 A2992 RMK A01 T02321006  RH  021%=      5-min Rain = 0
KPPS 191845Z 20013G18KT 23/M01 A2992 RMK A01 T02311010  RH  020%=      5-min Rain = 0
KPPS 191850Z 20013G18KT 23/M01 A2992 RMK A01 T02321013  RH  020%=      5-min Rain = 0
KPPS 191855Z 20014KT 23/M01 A2991 RMK A01 T02311014  RH  020%=      5-min Rain = 0
KPPS 191900Z 20013KT 23/M01 A2991 RMK A01 T02341013  RH  020%=      5-min Rain = 0
KPPS 191905Z 20012KT 24/M01 A2991 RMK A01 T02361011  RH  020%=      5-min Rain = 0
KPPS 191910Z 19014G19KT 24/M01 A299 RMK A01 T02371012  RH  019%=      5-min Rain = 0
KPPS 191915Z 20012KT 24/M01 A299 RMK A01 T02361013  RH  019%=      5-min Rain = 0
KPPS 191920Z 19013G19KT 24/M01 A2989 RMK A01 T02381011  RH  019%=      5-min Rain = 0
KPPS 191925Z 19015KT 24/M02 A2989 RMK A01 T02411015  RH  018%=      5-min Rain = 0
KPPS 191930Z 19012KT 24/M01 A2988 RMK A01 T02421012  RH  019%=      5-min Rain = 0
KPPS 191935Z 20012G17KT 24/M02 A2988 RMK A01 T02431016  RH  018%=      5-min Rain = 0
KPPS 191940Z 18014G19KT 24/M02 A2988 RMK A01 T02431015  RH  018%=      5-min Rain = 0
KPPS 191945Z 19011G16KT 25/M02 A2987 RMK A01 T02451016  RH  018%=      5-min Rain = 0
KPPS 191950Z 19012G19KT 25/M02 A2987 RMK A01 T02461016  RH  018%=      5-min Rain = 0
KPPS 191955Z 20013G19KT 25/M02 A2987 RMK A01 T02451019  RH  017%=      5-min Rain = 0
KPPS 192000Z 19012KT 24/M02 A2986 RMK A01 T02431018  RH  018%=      5-min Rain = 0
KPPS 192005Z 21012KT 25/M02 A2986 RMK A01 T02461019  RH  017%=      5-min Rain = 0
KPPS 192010Z 21011KT 24/M02 A2986 RMK A01 T02441021  RH  017%=      5-min Rain = 0
KPPS 192015Z 20010KT 24/M02 A2986 RMK A01 T02431021  RH  017%=      5-min Rain = 0
KPPS 192020Z 20011G16KT 24/M02 A2986 RMK A01 T02391019  RH  018%=      5-min Rain = 0
KPPS 192025Z 20010G15KT 24/M02 A2985 RMK A01 T02391020  RH  018%=      5-min Rain = 0
KPPS 192030Z 19012G17KT 24/M02 A2985 RMK A01 T02421018  RH  018%=      5-min Rain = 0
KPPS 192035Z 19012KT 24/M02 A2985 RMK A01 T02421020  RH  018%=      5-min Rain = 0
KPPS 192040Z 20011KT 24/M02 A2985 RMK A01 T02391019  RH  018%=      5-min Rain = 0
KPPS 192045Z 21009KT 25/M02 A2985 RMK A01 T02481018  RH  017%=      5-min Rain = 0
KPPS 192050Z 20008KT 25/M02 A2985 RMK A01 T02521016  RH  017%=      5-min Rain = 0
KPPS 192055Z 21010G16KT 25/M02 A2985 RMK A01 T02541018  RH  017%=      5-min Rain = 0
KPPS 192100Z 21012G17KT 25/M02 A2984 RMK A01 T02521021  RH  016%=      5-min Rain = 0
KPPS 192105Z 20012G17KT 25/M02 A2984 RMK A01 T02531021  RH  016%=      5-min Rain = 0
KPPS 192110Z 21013KT 25/M02 A2984 RMK A01 T02531021  RH  016%=      5-min Rain = 0
KPPS 192115Z 20012G18KT 25/M02 A2984 RMK A01 T02521019  RH  017%=      5-min Rain = 0
KPPS 192120Z 19011KT 25/M02 A2984 RMK A01 T02481019  RH  017%=      5-min Rain = 0
KPPS 192125Z 20012G17KT 24/M02 A2984 RMK A01 T02441016  RH  018%=      5-min Rain = 0
KPPS 192130Z 20012G17KT 24/M02 A2984 RMK A01 T02421018  RH  018%=      5-min Rain = 0
KPPS 192135Z 19011G16KT 24/M02 A2984 RMK A01 T02441015  RH  018%=      5-min Rain = 0
KPPS 192140Z 18012G17KT 24/M01 A2984 RMK A01 T02371013  RH  019%=      5-min Rain = 0
KPPS 192145Z 19013KT 24/M01 A2984 RMK A01 T02361013  RH  019%=      5-min Rain = 0
KPPS 192150Z 18013KT 24/M01 A2984 RMK A01 T02351012  RH  019%=      5-min Rain = 0
KPPS 192155Z 19012KT 24/M01 A2984 RMK A01 T02361013  RH  019%=      5-min Rain = 0
KPPS 192200Z 19011KT 24/M01 A2984 RMK A01 T02391012  RH  019%=      5-min Rain = 0
KPPS 192205Z 19013KT 24/M01 A2984 RMK A01 T02411011  RH  019%=      5-min Rain = 0
KPPS 192210Z 19013KT 24/M01 A2983 RMK A01 T02391011  RH  019%=      5-min Rain = 0
KPPS 192215Z 19013KT 24/M01 A2983 RMK A01 T02391011  RH  019%=      5-min Rain = 0
KPPS 192220Z 19012KT 24/M01 A2983 RMK A01 T02351012  RH  019%=      5-min Rain = 0
KPPS 192225Z 19011KT 23/M01 A2983 RMK A01 T02321011  RH  020%=      5-min Rain = 0
KPPS 192230Z 19012KT 23/M02 A2983 RMK A01 T02271018  RH  020%=      5-min Rain = 0
KPPS 192235Z 19010KT 22/M02 A2983 RMK A01 T02221019  RH  020%=      5-min Rain = 0
KPPS 192240Z 19009KT 22/M02 A2983 RMK A01 T02181018  RH  021%=      5-min Rain = 0
KPPS 192245Z 19009KT 21/M02 A2983 RMK A01 T02141017  RH  021%=      5-min Rain = 0
KPPS 192250Z 19008KT 21/M02 A2983 RMK A01 T02121017  RH  022%=      5-min Rain = 0
KPPS 192255Z 19008KT 21/M02 A2983 RMK A01 T02091016  RH  022%=      5-min Rain = 0
KPPS 192300Z 18007KT 21/M01 A2983 RMK A01 T02101014  RH  022%=      5-min Rain = 0
KPPS 192305Z 18007KT 21/M01 A2983 RMK A01 T02121013  RH  022%=      5-min Rain = 0
KPPS 192310Z 17008KT 21/M01 A2983 RMK A01 T02081011  RH  023%=      5-min Rain = 0
KPPS 192315Z 18009KT 21/M01 A2983 RMK A01 T02081008  RH  024%=      5-min Rain = 0
KPPS 192320Z 17009KT 21/M01 A2983 RMK A01 T02061007  RH  024%=      5-min Rain = 0
KPPS 192325Z 17008KT 20/M01 A2983 RMK A01 T02041007  RH  024%=      5-min Rain = 0
KPPS 192330Z 17008KT 20/M01 A2983 RMK A01 T02011007  RH  025%=      5-min Rain = 0
KPPS 192335Z 18008KT 20/M01 A2983 RMK A01 T01951006  RH  026%=      5-min Rain = 0
KPPS 192340Z 18008KT 19/M01 A2983 RMK A01 T01901005  RH  027%=      5-min Rain = 0
KPPS 192345Z 17008KT 19/M01 A2983 RMK A01 T01861005  RH  028%=      5-min Rain = 0
KPPS 192350Z 17007KT 18/M01 A2983 RMK A01 T01831006  RH  028%=      5-min Rain = 0
KPPS 192355Z 17007KT 18/M01 A2983 RMK A01 T01781007  RH  029%=      5-min Rain = 0
KPPS 200000Z 17007KT 17/M01 A2983 RMK A01 T01731006  RH  030%=      5-min Rain = 0
KPPS 200005Z 16007KT 17/M01 A2983 RMK A01 T01701007  RH  030%=      5-min Rain = 0
KPPS 200010Z 16007KT 17/M01 A2982 RMK A01 T01681007  RH  031%=      5-min Rain = 0
KPPS 200015Z 16007KT 17/M01 A2982 RMK A01 T01681007  RH  031%=      5-min Rain = 0
KPPS 200020Z 17008KT 17/M01 A2983 RMK A01 T01681006  RH  031%=      5-min Rain = 0
KPPS 200025Z 17009KT 17/M01 A2983 RMK A01 T01681005  RH  031%=      5-min Rain = 0
KPPS 200030Z 17009KT 17/M01 A2983 RMK A01 T01701005  RH  031%=      5-min Rain = 0
KPPS 200035Z 17008KT 17/M01 A2983 RMK A01 T01701005  RH  031%=      5-min Rain = 0
KPPS 200040Z 17008KT 17/M01 A2983 RMK A01 T01701006  RH  031%=      5-min Rain = 0
KPPS 200045Z 17008KT 17/M01 A2983 RMK A01 T01681006  RH  031%=      5-min Rain = 0
KPPS 200050Z 17009KT 17/M01 A2983 RMK A01 T01701007  RH  030%=      5-min Rain = 0
KPPS 200055Z 17009KT 17/M01 A2984 RMK A01 T01711007  RH  030%=      5-min Rain = 0
KPPS 200100Z 18009KT 17/M01 A2984 RMK A01 T01691006  RH  031%=      5-min Rain = 0
KPPS 200105Z 18009KT 17/M01 A2984 RMK A01 T01681007  RH  031%=      5-min Rain = 0
KPPS 200110Z 18008KT 17/M01 A2984 RMK A01 T01661007  RH  031%=      5-min Rain = 0
KPPS 200115Z 18008KT 16/M01 A2984 RMK A01 T01641006  RH  032%=      5-min Rain = 0
KPPS 200120Z 17008KT 16/M01 A2984 RMK A01 T01631006  RH  032%=      5-min Rain = 0
KPPS 200125Z 18008KT 16/M01 A2984 RMK A01 T01601005  RH  033%=      5-min Rain = 0
KPPS 200130Z 18008KT 16/M01 A2984 RMK A01 T01601005  RH  033%=      5-min Rain = 0
KPPS 200135Z 18008KT 16/M01 A2984 RMK A01 T01581005  RH  033%=      5-min Rain = 0
KPPS 200140Z 18008KT 16/M00 A2984 RMK A01 T01561004  RH  034%=      5-min Rain = 0
KPPS 200145Z 18008KT 15/M00 A2984 RMK A01 T01541003  RH  034%=      5-min Rain = 0
KPPS 200150Z 18008KT 15/M00 A2984 RMK A01 T01531003  RH  035%=      5-min Rain = 0
KPPS 200155Z 18008KT 15/M00 A2984 RMK A01 T01531002  RH  035%=      5-min Rain = 0
KPPS 200200Z 18007KT 15/M00 A2984 RMK A01 T01531002  RH  035%=      5-min Rain = 0
KPPS 200205Z 17007KT 15/M00 A2984 RMK A01 T01541002  RH  035%=      5-min Rain = 0
KPPS 200210Z 18007KT 16/M00 A2984 RMK A01 T01551002  RH  035%=      5-min Rain = 0
KPPS 200215Z 17007KT 16/M00 A2984 RMK A01 T01551002  RH  035%=      5-min Rain = 0
KPPS 200220Z 17007KT 16/M00 A2984 RMK A01 T01551002  RH  035%=      5-min Rain = 0
KPPS 200225Z 17008KT 16/M00 A2984 RMK A01 T01571002  RH  034%=      5-min Rain = 0
KPPS 200230Z 17009KT 16/M00 A2984 RMK A01 T01611004  RH  033%=      5-min Rain = 0
KPPS 200235Z 17009KT 16/M00 A2984 RMK A01 T01611004  RH  033%=      5-min Rain = 0
KPPS 200240Z 17008KT 16/M00 A2984 RMK A01 T01611004  RH  033%=      5-min Rain = 0
KPPS 200245Z 17009KT 16/M01 A2984 RMK A01 T01611005  RH  032%=      5-min Rain = 0
KPPS 200250Z 17010KT 16/M01 A2984 RMK A01 T01611005  RH  032%=      5-min Rain = 0
KPPS 200255Z 17011KT 16/M01 A2984 RMK A01 T01631007  RH  032%=      5-min Rain = 0
KPPS 200300Z 18011KT 16/M01 A2985 RMK A01 T01621008  RH  032%=      5-min Rain = 0
KPPS 200305Z 18011KT 16/M01 A2985 RMK A01 T01611008  RH  032%=      5-min Rain = 0
KPPS 200310Z 18011KT 16/M01 A2985 RMK A01 T01611008  RH  032%=      5-min Rain = 0
KPPS 200315Z 18011KT 16/M01 A2985 RMK A01 T01591007  RH  032%=      5-min Rain = 0
KPPS 200320Z 18011KT 16/M01 A2985 RMK A01 T01601006  RH  032%=      5-min Rain = 0
KPPS 200325Z 19012KT 16/M01 A2985 RMK A01 T01621007  RH  032%=      5-min Rain = 0
KPPS 200330Z 19012KT 16/M01 A2985 RMK A01 T01641007  RH  031%=      5-min Rain = 0
KPPS 200335Z 19011KT 16/M01 A2985 RMK A01 T01631007  RH  032%=      5-min Rain = 0
KPPS 200340Z 18010KT 16/M01 A2985 RMK A01 T01581007  RH  033%=      5-min Rain = 0
KPPS 200345Z 18009KT 16/M01 A2985 RMK A01 T01551006  RH  034%=      5-min Rain = 0
KPPS 200350Z 18009KT 15/M01 A2985 RMK A01 T01521005  RH  035%=      5-min Rain = 0
KPPS 200355Z 18007KT 15/M00 A2985 RMK A01 T01481004  RH  036%=      5-min Rain = 0
KPPS 200400Z 19008KT 15/M00 A2985 RMK A01 T01461003  RH  036%=      5-min Rain = 0
KPPS 200405Z 19010KT 15/00 A2985 RMK A01 T014800-0  RH  037%=      5-min Rain = 0
KPPS 200410Z 19010KT 15/01 A2985 RMK A01 T01500005  RH  038%=      5-min Rain = 0
KPPS 200415Z 19010KT 15/01 A2985 RMK A01 T01520007  RH  038%=      5-min Rain = 0
KPPS 200420Z 20010KT 15/00 A2985 RMK A01 T01500004  RH  038%=      5-min Rain = 0
KPPS 200425Z 19011KT 15/00 A2985 RMK A01 T01500004  RH  037%=      5-min Rain = 0
KPPS 200430Z 18010KT 15/01 A2985 RMK A01 T01500005  RH  038%=      5-min Rain = 0
KPPS 200435Z 19011KT 15/01 A2985 RMK A01 T01490006  RH  038%=      5-min Rain = 0
KPPS 200440Z 19010KT 15/01 A2985 RMK A01 T01480007  RH  039%=      5-min Rain = 0
KPPS 200445Z 20010KT 15/01 A2985 RMK A01 T01460008  RH  039%=      5-min Rain = 0
KPPS 200450Z 20010KT 15/01 A2985 RMK A01 T01470009  RH  039%=      5-min Rain = 0
KPPS 200455Z 20010KT 15/01 A2985 RMK A01 T01480009  RH  039%=      5-min Rain = 0
KPPS 200500Z 20009KT 15/01 A2985 RMK A01 T01470011  RH  040%=      5-min Rain = 0
KPPS 200505Z 20008KT 15/01 A2985 RMK A01 T01470013  RH  041%=      5-min Rain = 0
KPPS 200510Z 20008KT 15/02 A2985 RMK A01 T01460015  RH  042%=      5-min Rain = 0
KPPS 200515Z 20009KT 15/02 A2986 RMK A01 T01470018  RH  042%=      5-min Rain = 0
KPPS 200520Z 20009KT 15/02 A2985 RMK A01 T01470022  RH  044%=      5-min Rain = 0
KPPS 200525Z 19008KT 15/03 A2985 RMK A01 T01470025  RH  044%=      5-min Rain = 0
KPPS 200530Z 19008KT 15/03 A2985 RMK A01 T01460027  RH  045%=      5-min Rain = 0
KPPS 200535Z 20008KT 15/03 A2985 RMK A01 T01460031  RH  047%=      5-min Rain = 0
KPPS 200540Z 21011KT 16/04 A2985 RMK A01 T01550038  RH  046%=      5-min Rain = 0
KPPS 200545Z 21011G16KT 16/04 A2985 RMK A01 T01600039  RH  045%=      5-min Rain = 0
KPPS 200550Z 21013KT 16/04 A2985 RMK A01 T01620041  RH  045%=      5-min Rain = 0
KPPS 200555Z 21013KT 16/04 A2985 RMK A01 T01620044  RH  046%=      5-min Rain = 0

Page generated in 0.0106 seconds.